Time;durP1;ratioP1;P1;durP2;ratioP2;P2;SDS_P1;SDS_P2;PMS_P1;PMS_P2;Temp;Humidity;BMP_temperature;BMP_pressure;BME280_temperature;BME280_humidity;BME280_pressure;Samples;Min_cycle;Max_cycle;Signal;HPM_P1;HPM_P2
2022/01/20 00:00:55;;;;;;;18.65;2.17;;;4.50;99.90;;;;;;4783382;29;20055;-66
2022/01/20 00:03:31;;;;;;;12.48;1.75;;;4.40;99.90;;;;;;4784467;29;20355;-66
2022/01/20 00:08:49;;;;;;;8.80;1.65;;;4.30;99.90;;;;;;4783638;29;20048;-66
2022/01/20 00:27:51;;;;;;;11.77;1.88;;;4.20;99.90;;;;;;4779063;29;20047;-66
2022/01/20 00:30:37;;;;;;;11.43;1.75;;;4.20;99.90;;;;;;4768603;29;20837;-66
2022/01/20 00:38:27;;;;;;;9.98;1.60;;;4.20;99.90;;;;;;4761901;29;20501;-66
2022/01/20 00:40:54;;;;;;;12.80;1.80;;;4.20;99.90;;;;;;4784225;29;20104;-66
2022/01/20 00:43:19;;;;;;;14.68;2.03;;;4.20;99.90;;;;;;4785242;29;20112;-66
2022/01/20 00:45:47;;;;;;;11.90;1.80;;;4.40;99.90;;;;;;4783045;29;20075;-66
2022/01/20 00:48:13;;;;;;;8.00;1.80;;;4.30;99.90;;;;;;4783243;29;20059;-66
2022/01/20 00:50:39;;;;;;;11.88;1.70;;;4.30;99.90;;;;;;4783026;29;20061;-66
2022/01/20 00:53:04;;;;;;;14.95;2.13;;;4.30;99.90;;;;;;4783650;29;20054;-66
2022/01/20 00:55:30;;;;;;;17.50;2.60;;;4.40;99.90;;;;;;4782872;29;20055;-66
2022/01/20 00:57:56;;;;;;;11.73;2.00;;;4.40;99.90;;;;;;4783482;29;20447;-66
2022/01/20 01:00:22;;;;;;;16.27;1.83;;;4.40;99.90;;;;;;4783570;29;20096;-66
2022/01/20 01:02:48;;;;;;;11.05;2.03;;;4.50;99.90;;;;;;4783084;29;20126;-67
2022/01/20 01:05:14;;;;;;;17.15;2.25;;;4.60;99.90;;;;;;4783261;29;20058;-66
2022/01/20 01:07:51;;;;;;;25.20;3.00;;;4.50;99.90;;;;;;4783363;29;20082;-67
2022/01/20 01:10:21;;;;;;;16.17;2.47;;;4.50;99.90;;;;;;4782956;29;20099;-67
2022/01/20 01:13:01;;;;;;;21.17;2.55;;;4.60;99.90;;;;;;4783115;29;20071;-67
2022/01/20 01:15:41;;;;;;;18.23;2.92;;;4.50;99.90;;;;;;4782342;29;20059;-67
2022/01/20 01:23:36;;;;;;;14.63;2.22;;;4.60;99.90;;;;;;4768658;29;20417;-67
2022/01/20 01:26:04;;;;;;;11.18;2.17;;;4.70;99.90;;;;;;4767762;29;20055;-66
2022/01/20 01:28:32;;;;;;;14.35;2.17;;;4.70;99.90;;;;;;4781905;29;20059;-66
2022/01/20 01:33:53;;;;;;;7.43;1.23;;;4.50;99.90;;;;;;4782884;29;20155;-66
2022/01/20 01:36:21;;;;;;;7.43;1.10;;;4.30;99.90;;;;;;4783092;29;20105;-66
2022/01/20 01:38:47;;;;;;;10.43;1.20;;;4.20;99.90;;;;;;4781618;29;20535;-66
2022/01/20 01:41:17;;;;;;;5.88;1.17;;;4.10;99.90;;;;;;4782409;29;20051;-66
2022/01/20 01:43:47;;;;;;;11.93;1.40;;;4.00;99.90;;;;;;4782638;29;20651;-66
2022/01/20 01:46:14;;;;;;;5.38;1.05;;;3.90;99.90;;;;;;4784484;29;20043;-67
2022/01/20 01:48:42;;;;;;;7.53;1.15;;;4.00;99.90;;;;;;4783422;29;20047;-66
2022/01/20 01:51:09;;;;;;;8.30;1.15;;;3.90;99.90;;;;;;4782502;29;20054;-67
2022/01/20 01:53:36;;;;;;;9.60;1.38;;;3.80;99.90;;;;;;4782484;29;20043;-67
2022/01/20 01:56:03;;;;;;;6.32;1.33;;;3.80;99.90;;;;;;4783184;29;20043;-67
2022/01/20 01:58:28;;;;;;;8.52;1.50;;;3.90;99.90;;;;;;4782253;29;20043;-67
2022/01/20 02:00:56;;;;;;;8.00;1.55;;;3.90;99.90;;;;;;4782767;29;20642;-67
2022/01/20 02:03:23;;;;;;;8.55;1.67;;;3.90;99.90;;;;;;4781368;29;20510;-67
2022/01/20 02:06:07;;;;;;;8.27;1.67;;;3.90;99.90;;;;;;4782043;29;20086;-67
2022/01/20 02:19:17;;;;;;;9.68;1.75;;;4.00;99.90;;;;;;4782893;29;20105;-67
2022/01/20 02:21:56;;;;;;;11.80;1.63;;;4.10;99.90;;;;;;4782360;29;20079;-67
2022/01/20 02:24:22;;;;;;;9.02;1.83;;;4.10;99.90;;;;;;4782195;29;20389;-67
2022/01/20 02:26:48;;;;;;;8.00;1.30;;;4.40;99.90;;;;;;4782537;29;20066;-67
2022/01/20 02:29:15;;;;;;;8.85;1.33;;;4.30;99.90;;;;;;4782237;29;20054;-67
2022/01/20 02:31:41;;;;;;;8.25;1.73;;;4.30;99.90;;;;;;4781738;29;20054;-67
2022/01/20 02:34:11;;;;;;;8.60;1.58;;;4.30;99.90;;;;;;4781961;29;20288;-67
2022/01/20 02:36:40;;;;;;;10.20;1.33;;;4.30;99.90;;;;;;4766461;29;20396;-67
2022/01/20 02:39:21;;;;;;;8.23;1.65;;;4.60;99.90;;;;;;4782264;29;20409;-67
2022/01/20 02:47:16;;;;;;;8.80;1.38;;;4.20;99.90;;;;;;4781381;29;20462;-67
2022/01/20 02:49:42;;;;;;;8.30;1.42;;;4.30;99.90;;;;;;4781104;29;20103;-67
2022/01/20 02:52:07;;;;;;;8.02;1.30;;;4.30;99.90;;;;;;4766869;29;20055;-67
2022/01/20 02:54:34;;;;;;;7.57;1.42;;;4.30;99.90;;;;;;4781081;29;20055;-67
2022/01/20 02:57:01;;;;;;;6.68;1.50;;;4.30;99.90;;;;;;4766888;29;20051;-67
2022/01/20 02:59:27;;;;;;;10.85;1.52;;;4.30;99.90;;;;;;4781209;29;20496;-67
2022/01/20 03:01:53;;;;;;;11.68;1.75;;;4.30;99.90;;;;;;4781283;29;21260;-67
2022/01/20 03:04:23;;;;;;;8.63;1.15;;;4.30;99.90;;;;;;4781061;29;20047;-67
2022/01/20 03:06:49;;;;;;;5.53;1.20;;;4.20;99.90;;;;;;4767351;29;20071;-67
2022/01/20 03:09:14;;;;;;;8.43;1.52;;;4.30;99.90;;;;;;4781191;29;20516;-67
2022/01/20 03:11:40;;;;;;;7.35;1.40;;;4.30;99.90;;;;;;4781417;29;20142;-67
2022/01/20 03:14:06;;;;;;;4.18;1.10;;;4.30;99.90;;;;;;4780808;29;20054;-67
2022/01/20 03:16:32;;;;;;;7.20;1.30;;;4.30;99.90;;;;;;4780926;29;20051;-67
2022/01/20 03:18:57;;;;;;;9.85;1.38;;;4.30;99.90;;;;;;4784455;29;20054;-67
2022/01/20 03:21:23;;;;;;;9.48;1.60;;;4.30;99.90;;;;;;4786615;29;20071;-67
2022/01/20 03:23:49;;;;;;;12.00;1.88;;;4.20;99.90;;;;;;4787547;29;20094;-67
2022/01/20 03:26:15;;;;;;;12.35;1.40;;;4.30;99.90;;;;;;4787314;29;20137;-67
2022/01/20 03:28:40;;;;;;;14.00;1.67;;;4.50;99.90;;;;;;4755920;29;20153;-66
2022/01/20 03:31:06;;;;;;;10.40;1.40;;;4.20;99.90;;;;;;4788734;29;20050;-67
2022/01/20 03:33:32;;;;;;;11.45;2.00;;;4.10;99.90;;;;;;4787567;29;20047;-67
2022/01/20 03:35:58;;;;;;;10.88;1.55;;;4.10;99.90;;;;;;4786731;29;20043;-67
2022/01/20 03:38:23;;;;;;;13.10;2.30;;;4.10;99.90;;;;;;4786408;29;20494;-67
2022/01/20 03:40:50;;;;;;;15.00;2.08;;;4.10;99.90;;;;;;4786854;29;20218;-67
2022/01/20 03:43:16;;;;;;;15.38;2.38;;;4.10;99.90;;;;;;4787203;29;20055;-67
2022/01/20 03:45:47;;;;;;;16.35;2.33;;;4.10;99.90;;;;;;4772383;29;21450;-67
2022/01/20 03:48:12;;;;;;;11.60;2.22;;;4.10;99.90;;;;;;4786510;29;20051;-67
2022/01/20 03:53:23;;;;;;;20.27;3.33;;;4.00;99.90;;;;;;4786770;29;20103;-67
2022/01/20 03:55:49;;;;;;;19.77;2.45;;;4.10;99.90;;;;;;4786574;29;20108;-67
2022/01/20 03:58:15;;;;;;;19.45;3.22;;;4.30;99.90;;;;;;4786859;29;20051;-67
2022/01/20 04:00:43;;;;;;;12.82;2.70;;;4.00;99.90;;;;;;4786462;29;20489;-67
2022/01/20 04:03:10;;;;;;;19.00;2.90;;;4.00;99.90;;;;;;4787047;29;20048;-67
2022/01/20 04:05:43;;;;;;;20.80;4.18;;;4.00;99.90;;;;;;4786690;29;20181;-67
2022/01/20 04:08:08;;;;;;;24.38;2.90;;;4.10;99.90;;;;;;4786931;29;20046;-67
2022/01/20 04:10:34;;;;;;;24.55;3.63;;;4.10;99.90;;;;;;4785879;29;20059;-67
2022/01/20 04:13:00;;;;;;;26.50;3.90;;;4.10;99.90;;;;;;4771766;29;20047;-67
2022/01/20 04:15:36;;;;;;;24.52;4.05;;;4.10;99.90;;;;;;4786738;29;20554;-67
2022/01/20 04:18:02;;;;;;;25.48;3.83;;;4.00;99.90;;;;;;4786627;29;20484;-67
2022/01/20 04:20:27;;;;;;;15.60;3.13;;;4.00;99.90;;;;;;4772058;29;20385;-67
2022/01/20 04:22:53;;;;;;;23.10;3.60;;;4.00;99.90;;;;;;4786060;29;20043;-67
2022/01/20 04:25:19;;;;;;;18.85;3.50;;;4.00;99.90;;;;;;4786732;29;20651;-67
2022/01/20 04:27:44;;;;;;;22.75;3.95;;;4.00;99.90;;;;;;4785729;29;20531;-67
2022/01/20 04:30:10;;;;;;;27.70;4.82;;;4.00;99.90;;;;;;4784013;29;20137;-67
2022/01/20 04:32:36;;;;;;;21.65;4.30;;;4.00;99.90;;;;;;4782238;29;20077;-67
2022/01/20 04:35:02;;;;;;;20.70;3.55;;;4.00;99.90;;;;;;4783913;29;20043;-67
2022/01/20 04:37:28;;;;;;;21.52;4.00;;;4.00;99.90;;;;;;4783629;29;20043;-67
2022/01/20 04:39:55;;;;;;;25.80;3.30;;;4.00;99.90;;;;;;4785029;29;20047;-67
2022/01/20 04:42:23;;;;;;;16.83;2.95;;;3.90;99.90;;;;;;4783280;29;20051;-67
2022/01/20 04:45:13;;;;;;;21.70;3.70;;;3.90;99.90;;;;;;4782180;29;20055;-67
2022/01/20 04:47:47;;;;;;;22.50;3.20;;;4.10;99.90;;;;;;4783429;29;20126;-67
2022/01/20 04:58:25;;;;;;;15.07;2.63;;;3.90;99.90;;;;;;4781911;29;20053;-67
2022/01/20 05:00:50;;;;;;;18.40;2.72;;;3.80;99.90;;;;;;4783253;29;20043;-67
2022/01/20 05:03:16;;;;;;;18.40;2.78;;;4.10;99.90;;;;;;4783253;29;20062;-67
2022/01/20 05:05:42;;;;;;;18.38;2.70;;;4.20;99.90;;;;;;4784452;29;20507;-67
2022/01/20 05:08:08;;;;;;;15.55;2.17;;;3.80;99.90;;;;;;4768337;29;20096;-67
2022/01/20 05:10:34;;;;;;;16.27;2.72;;;3.80;99.90;;;;;;4782653;29;20070;-67
2022/01/20 05:13:12;;;;;;;13.18;2.35;;;3.80;99.90;;;;;;4782526;29;20059;-67
2022/01/20 05:15:39;;;;;;;10.38;2.28;;;3.70;99.90;;;;;;4782682;29;20048;-67
2022/01/20 05:18:05;;;;;;;12.32;2.90;;;3.70;99.90;;;;;;4782925;29;20041;-67
2022/01/20 05:20:30;;;;;;;11.82;2.50;;;3.70;99.90;;;;;;4783661;29;20044;-67
2022/01/20 05:22:56;;;;;;;14.07;2.30;;;3.80;99.90;;;;;;4783062;29;20084;-67
2022/01/20 05:25:22;;;;;;;14.48;2.92;;;3.80;99.90;;;;;;4768413;29;20497;-66
2022/01/20 05:27:47;;;;;;;14.65;2.08;;;3.70;99.90;;;;;;4782457;29;20119;-66
2022/01/20 05:30:13;;;;;;;12.65;2.25;;;3.50;99.90;;;;;;4783848;29;20489;-66
2022/01/20 05:32:39;;;;;;;13.70;2.42;;;3.30;99.90;;;;;;4782324;29;20078;-66
2022/01/20 05:35:05;;;;;;;15.38;2.70;;;3.20;99.90;;;;;;4782458;29;20047;-67
2022/01/20 05:37:31;;;;;;;13.13;2.30;;;3.10;99.90;;;;;;4781854;29;20134;-67
2022/01/20 05:39:56;;;;;;;14.98;2.25;;;3.00;99.90;;;;;;4780993;29;20122;-67
2022/01/20 05:42:22;;;;;;;14.32;2.30;;;2.90;99.90;;;;;;4782109;29;20047;-66
2022/01/20 05:44:50;;;;;;;13.82;2.42;;;3.10;99.90;;;;;;4782429;29;20047;-67
2022/01/20 05:47:25;;;;;;;15.00;2.58;;;2.80;99.90;;;;;;4781607;29;20133;-66
2022/01/20 05:49:51;;;;;;;11.23;2.35;;;2.80;99.90;;;;;;4782385;29;20047;-66
2022/01/20 05:52:19;;;;;;;17.00;2.85;;;2.70;99.90;;;;;;4782374;29;20061;-66
2022/01/20 05:54:44;;;;;;;21.27;2.58;;;2.70;99.90;;;;;;4781964;29;20043;-67
2022/01/20 05:57:11;;;;;;;11.60;2.55;;;2.70;99.90;;;;;;4752733;29;20488;-66
2022/01/20 05:59:37;;;;;;;13.40;2.70;;;2.70;99.90;;;;;;4780545;29;20061;-66
2022/01/20 06:02:12;;;;;;;10.80;1.98;;;3.00;99.90;;;;;;4782047;29;20043;-66
2022/01/20 06:04:39;;;;;;;12.82;2.75;;;2.80;99.90;;;;;;4782231;29;20047;-67
2022/01/20 06:07:05;;;;;;;13.50;2.60;;;2.80;99.90;;;;;;4780870;29;20055;-66
2022/01/20 06:09:30;;;;;;;16.92;2.70;;;2.90;99.90;;;;;;4781408;29;20058;-66
2022/01/20 06:11:56;;;;;;;12.13;2.00;;;2.90;99.90;;;;;;4782018;29;20062;-67
2022/01/20 06:14:23;;;;;;;14.00;1.95;;;3.00;99.90;;;;;;4781533;29;20043;-66
2022/01/20 06:16:49;;;;;;;13.35;1.80;;;3.00;99.90;;;;;;4781956;29;20070;-66
2022/01/20 06:19:15;;;;;;;10.20;1.88;;;2.90;99.90;;;;;;4782792;29;20086;-66
2022/01/20 06:21:41;;;;;;;19.60;3.00;;;3.00;99.90;;;;;;4768272;29;20100;-66
2022/01/20 06:24:07;;;;;;;16.77;3.08;;;2.90;99.90;;;;;;4781953;29;20042;-66
2022/01/20 06:26:33;;;;;;;18.00;2.20;;;2.80;99.90;;;;;;4782699;29;20039;-66
2022/01/20 06:28:59;;;;;;;17.48;2.72;;;2.80;99.90;;;;;;4766404;29;20422;-66
2022/01/20 06:31:24;;;;;;;10.70;2.35;;;2.80;99.90;;;;;;4781178;29;20076;-67
2022/01/20 06:33:50;;;;;;;14.55;2.85;;;2.70;99.90;;;;;;4780809;29;20108;-66
2022/01/20 06:36:16;;;;;;;13.82;2.63;;;2.70;99.90;;;;;;4781574;29;20922;-67
2022/01/20 06:38:42;;;;;;;17.77;2.30;;;2.70;99.90;;;;;;4780527;29;20143;-66
2022/01/20 06:41:08;;;;;;;10.60;2.00;;;2.70;99.90;;;;;;4780685;29;20528;-67
2022/01/20 06:43:34;;;;;;;7.90;2.13;;;2.70;99.90;;;;;;4779816;29;20072;-66
2022/01/20 06:46:00;;;;;;;13.80;3.65;;;2.90;99.90;;;;;;4779610;29;20047;-66
2022/01/20 06:48:25;;;;;;;11.80;2.10;;;2.80;99.90;;;;;;4782200;29;20043;-66
2022/01/20 06:50:51;;;;;;;10.07;2.25;;;2.80;99.90;;;;;;4782452;29;20075;-66
2022/01/20 06:53:17;;;;;;;7.93;1.92;;;2.80;99.90;;;;;;4781444;29;20138;-67
2022/01/20 06:55:42;;;;;;;11.38;1.83;;;2.80;99.90;;;;;;4766474;29;20507;-66
2022/01/20 06:58:08;;;;;;;11.85;1.92;;;3.00;99.90;;;;;;4780997;29;20055;-66
2022/01/20 07:00:34;;;;;;;10.68;2.03;;;2.80;99.90;;;;;;4781065;29;20104;-66
2022/01/20 07:02:59;;;;;;;13.18;1.80;;;2.70;99.90;;;;;;4780221;29;20104;-66
2022/01/20 07:05:25;;;;;;;14.32;2.90;;;2.70;99.90;;;;;;4763711;29;20514;-66
2022/01/20 07:07:51;;;;;;;13.18;2.17;;;2.70;99.90;;;;;;4780207;29;20098;-67
2022/01/20 07:10:18;;;;;;;11.25;2.40;;;2.70;99.90;;;;;;4779230;29;20100;-67
2022/01/20 07:12:44;;;;;;;11.13;2.05;;;2.70;99.90;;;;;;4780577;29;20500;-66
2022/01/20 07:15:10;;;;;;;12.32;2.25;;;2.60;99.90;;;;;;4780036;29;20497;-66
2022/01/20 07:17:36;;;;;;;12.63;1.98;;;2.50;99.90;;;;;;4782488;29;20146;-67
2022/01/20 07:20:03;;;;;;;8.18;2.00;;;2.50;99.90;;;;;;4779132;29;20047;-66
2022/01/20 07:22:28;;;;;;;16.48;2.05;;;2.40;99.90;;;;;;4792906;29;20085;-66
2022/01/20 07:24:54;;;;;;;14.07;2.17;;;2.30;99.90;;;;;;4776519;29;20087;-66
2022/01/20 07:27:20;;;;;;;8.82;1.80;;;2.20;99.90;;;;;;4781814;29;20078;-65
2022/01/20 07:29:45;;;;;;;11.70;1.90;;;2.20;99.90;;;;;;4780670;29;20047;-66
2022/01/20 07:32:11;;;;;;;8.82;1.88;;;2.20;99.90;;;;;;4780160;29;20043;-66
2022/01/20 07:34:37;;;;;;;12.45;1.67;;;2.20;99.90;;;;;;4780724;29;20075;-66
2022/01/20 07:37:04;;;;;;;11.45;1.92;;;2.10;99.90;;;;;;4781450;29;20051;-66
2022/01/20 07:39:30;;;;;;;11.48;1.90;;;2.10;99.90;;;;;;4778631;29;20057;-66
2022/01/20 07:41:55;;;;;;;8.82;1.55;;;2.10;99.90;;;;;;4780754;29;20055;-66
2022/01/20 07:44:21;;;;;;;8.52;2.05;;;2.10;99.90;;;;;;4765411;29;20550;-66
2022/01/20 07:46:48;;;;;;;9.98;1.85;;;2.20;99.90;;;;;;4781397;29;20043;-66
2022/01/20 07:49:14;;;;;;;13.32;2.10;;;2.20;99.90;;;;;;4780874;29;20055;-66
2022/01/20 07:51:40;;;;;;;16.33;2.58;;;2.20;99.90;;;;;;4781126;29;20058;-66
2022/01/20 07:54:06;;;;;;;14.77;2.28;;;2.30;99.90;;;;;;4780027;29;20513;-66
2022/01/20 07:56:32;;;;;;;9.73;2.00;;;2.20;99.90;;;;;;4780600;29;20039;-66
2022/01/20 07:58:57;;;;;;;14.27;2.75;;;2.20;99.90;;;;;;4781562;29;20134;-66
2022/01/20 08:01:26;;;;;;;18.30;3.30;;;2.20;99.90;;;;;;4780873;29;20055;-66
2022/01/20 08:03:53;;;;;;;12.27;2.33;;;2.20;99.90;;;;;;4780338;29;20045;-66
2022/01/20 08:06:20;;;;;;;14.48;3.17;;;2.20;99.90;;;;;;4766272;29;20447;-66
2022/01/20 08:08:46;;;;;;;18.30;2.30;;;2.20;99.90;;;;;;4783263;29;20047;-66
2022/01/20 08:11:13;;;;;;;16.23;2.40;;;2.20;99.90;;;;;;4781473;29;20474;-66
2022/01/20 08:13:39;;;;;;;13.15;3.22;;;2.20;99.90;;;;;;4782905;29;20128;-66
2022/01/20 08:16:04;;;;;;;8.63;2.72;;;2.20;99.90;;;;;;4784456;29;20051;-66
2022/01/20 08:18:30;;;;;;;11.73;2.58;;;2.20;99.90;;;;;;4784608;29;20050;-66
2022/01/20 08:20:56;;;;;;;17.77;3.03;;;2.30;99.90;;;;;;4784045;29;20046;-65
2022/01/20 08:23:22;;;;;;;10.82;2.72;;;2.30;99.90;;;;;;4782998;29;20975;-66
2022/01/20 08:25:48;;;;;;;17.48;3.05;;;2.30;99.90;;;;;;4784331;29;20142;-66
2022/01/20 08:28:14;;;;;;;13.77;2.78;;;2.40;99.90;;;;;;4784410;29;20062;-66
2022/01/20 08:30:41;;;;;;;18.83;3.05;;;2.40;99.90;;;;;;4784435;29;20055;-66
2022/01/20 08:33:07;;;;;;;14.50;3.20;;;2.40;99.90;;;;;;4784198;29;20065;-66
2022/01/20 08:35:33;;;;;;;15.32;2.40;;;2.40;99.90;;;;;;4769314;29;20057;-66
2022/01/20 08:38:01;;;;;;;13.13;3.33;;;2.40;99.90;;;;;;4782684;29;20057;-65
2022/01/20 08:40:27;;;;;;;18.45;2.75;;;2.40;99.90;;;;;;4783535;29;20043;-66
2022/01/20 08:42:55;;;;;;;16.83;2.70;;;2.40;99.90;;;;;;4765484;29;20370;-66
2022/01/20 08:45:24;;;;;;;16.83;2.95;;;2.20;99.90;;;;;;4782719;29;20059;-66
2022/01/20 08:47:54;;;;;;;13.27;2.50;;;2.20;99.90;;;;;;4779447;29;20052;-65
2022/01/20 08:50:20;;;;;;;17.92;3.15;;;2.40;99.90;;;;;;4766119;29;20526;-65
2022/01/20 08:52:46;;;;;;;16.08;2.50;;;2.30;99.90;;;;;;4780112;29;20393;-66
2022/01/20 08:55:11;;;;;;;15.95;2.92;;;2.30;99.90;;;;;;4781594;29;20059;-65
2022/01/20 08:57:37;;;;;;;16.65;2.83;;;2.30;99.90;;;;;;4781034;29;20055;-65
2022/01/20 09:00:05;;;;;;;20.10;2.78;;;2.30;99.90;;;;;;4781963;29;20047;-66
2022/01/20 09:02:30;;;;;;;13.13;2.65;;;2.40;99.90;;;;;;4767733;29;20054;-65
2022/01/20 09:04:58;;;;;;;17.02;2.67;;;2.40;99.90;;;;;;4781314;29;20043;-65
2022/01/20 09:07:24;;;;;;;15.45;2.47;;;2.40;99.90;;;;;;4780507;29;20036;-65
2022/01/20 09:09:50;;;;;;;18.90;2.78;;;2.40;99.90;;;;;;4780515;29;20047;-65
2022/01/20 09:17:45;;;;;;;20.17;2.60;;;2.60;99.90;;;;;;4779546;29;20051;-65
2022/01/20 09:20:12;;;;;;;18.23;3.00;;;2.80;99.90;;;;;;4782665;29;20047;-66
2022/01/20 09:22:38;;;;;;;18.55;3.15;;;3.20;99.90;;;;;;4780683;29;20066;-65
2022/01/20 09:25:06;;;;;;;15.57;2.47;;;3.10;99.90;;;;;;4781908;29;20051;-65
2022/01/20 09:27:32;;;;;;;13.48;2.38;;;3.10;99.90;;;;;;4780132;29;20396;-65
2022/01/20 09:29:58;;;;;;;10.98;2.60;;;3.10;99.90;;;;;;4781830;29;20137;-65
2022/01/20 09:32:26;;;;;;;12.07;2.88;;;3.20;99.90;;;;;;4780139;29;20150;-65
2022/01/20 09:34:52;;;;;;;13.35;2.38;;;3.30;99.90;;;;;;4780907;29;20062;-66
2022/01/20 09:37:18;;;;;;;13.45;2.42;;;3.40;99.90;;;;;;4783162;29;20055;-65
2022/01/20 09:39:45;;;;;;;15.50;2.95;;;3.60;99.90;;;;;;4780664;29;20043;-65
2022/01/20 09:42:11;;;;;;;14.45;2.90;;;3.70;99.90;;;;;;4780396;29;20125;-65
2022/01/20 09:44:45;;;;;;;7.60;2.00;;;3.90;99.90;;;;;;4780400;29;20046;-65
2022/01/20 09:47:12;;;;;;;9.98;2.17;;;3.80;99.90;;;;;;4780845;29;20725;-65
2022/01/20 09:49:38;;;;;;;9.77;1.65;;;3.80;99.90;;;;;;4780639;29;20058;-65
2022/01/20 09:52:05;;;;;;;9.25;1.90;;;3.60;99.90;;;;;;4777503;29;20059;-65
2022/01/20 09:54:31;;;;;;;11.30;1.83;;;3.40;99.90;;;;;;4779889;29;20056;-65
2022/01/20 09:56:58;;;;;;;11.68;2.45;;;3.30;99.90;;;;;;4779861;29;20160;-66
2022/01/20 09:59:24;;;;;;;14.23;2.63;;;3.30;99.90;;;;;;4779687;29;20058;-65
2022/01/20 10:01:56;;;;;;;12.00;2.20;;;3.10;99.90;;;;;;4781373;29;20060;-65
2022/01/20 10:04:24;;;;;;;17.88;3.08;;;3.10;99.90;;;;;;4781361;29;20151;-65
2022/01/20 10:06:59;;;;;;;14.30;2.47;;;3.10;99.90;;;;;;4781189;29;20051;-65
2022/01/20 10:09:45;;;;;;;13.83;2.40;;;3.20;99.90;;;;;;4764007;29;20124;-65
2022/01/20 10:12:17;;;;;;;18.45;2.58;;;3.30;99.90;;;;;;4781178;29;20086;-65
2022/01/20 10:14:52;;;;;;;15.75;2.55;;;3.50;99.90;;;;;;4764467;29;20103;-65
2022/01/20 10:17:27;;;;;;;17.17;2.67;;;3.40;99.90;;;;;;4780502;29;20095;-65
2022/01/20 10:20:04;;;;;;;9.97;2.40;;;3.50;99.90;;;;;;4780649;29;20053;-65
2022/01/20 10:22:32;;;;;;;13.93;2.50;;;3.60;99.90;;;;;;4779578;29;20293;-65
2022/01/20 10:25:10;;;;;;;11.20;2.50;;;3.70;99.90;;;;;;4780161;29;20150;-65
2022/01/20 10:27:48;;;;;;;12.93;2.78;;;3.70;99.90;;;;;;4777619;29;20059;-65
2022/01/20 10:30:15;;;;;;;13.50;2.60;;;3.80;99.90;;;;;;4777238;29;20104;-65
2022/01/20 10:32:50;;;;;;;17.45;2.53;;;4.00;99.90;;;;;;4779420;29;20051;-65
2022/01/20 10:35:23;;;;;;;12.98;2.15;;;4.00;99.90;;;;;;4780129;29;20519;-65
2022/01/20 10:37:59;;;;;;;19.95;3.78;;;4.10;99.90;;;;;;4781257;29;20097;-65
2022/01/20 10:40:25;;;;;;;15.23;2.95;;;4.10;99.90;;;;;;4780007;29;20058;-65
2022/01/20 10:42:51;;;;;;;17.20;2.50;;;4.20;99.90;;;;;;4778771;29;20039;-65
2022/01/20 10:45:28;;;;;;;13.38;3.67;;;4.10;99.90;;;;;;4782200;29;20124;-65
2022/01/20 10:47:57;;;;;;;13.43;2.70;;;4.10;99.90;;;;;;4780267;29;20063;-65
2022/01/20 10:50:41;;;;;;;13.98;2.28;;;4.10;99.90;;;;;;4779845;29;20516;-65
2022/01/20 10:53:16;;;;;;;11.88;2.45;;;4.10;99.90;;;;;;4779414;29;20047;-65
2022/01/20 10:55:42;;;;;;;13.02;2.20;;;4.20;99.90;;;;;;4778320;29;20059;-65
2022/01/20 10:58:11;;;;;;;17.25;3.00;;;4.30;99.90;;;;;;4781218;29;20043;-65
2022/01/20 11:00:46;;;;;;;15.57;2.92;;;4.30;99.90;;;;;;4780278;29;20063;-65
2022/01/20 11:03:13;;;;;;;18.60;2.88;;;4.40;99.90;;;;;;4781470;29;20476;-65
2022/01/20 11:05:40;;;;;;;16.90;2.63;;;4.40;99.90;;;;;;4780141;29;20075;-65
2022/01/20 11:08:07;;;;;;;13.77;2.33;;;4.40;99.90;;;;;;4779998;29;20051;-65
2022/01/20 11:10:33;;;;;;;11.20;3.10;;;4.50;99.90;;;;;;4779908;29;20070;-65
2022/01/20 11:12:59;;;;;;;14.27;2.67;;;4.50;99.90;;;;;;4780839;29;20047;-65
2022/01/20 11:15:28;;;;;;;11.25;2.50;;;4.80;99.90;;;;;;4780393;29;20497;-66
2022/01/20 11:17:56;;;;;;;17.13;2.50;;;4.60;99.90;;;;;;4780846;29;20473;-65
2022/01/20 11:20:29;;;;;;;12.38;2.45;;;4.60;99.90;;;;;;4780588;29;20124;-65
2022/01/20 11:23:07;;;;;;;15.75;2.50;;;4.70;99.90;;;;;;4780428;29;20047;-66
2022/01/20 11:25:38;;;;;;;15.93;2.60;;;4.70;99.90;;;;;;4781891;29;20062;-66
2022/01/20 11:28:24;;;;;;;16.70;2.88;;;4.90;99.90;;;;;;4779623;29;20126;-66
2022/01/20 11:30:59;;;;;;;14.82;2.83;;;4.80;99.90;;;;;;4779119;29;20055;-66
2022/01/20 11:33:44;;;;;;;14.30;2.70;;;4.90;99.90;;;;;;4778274;29;20051;-66
2022/01/20 11:36:27;;;;;;;12.82;2.55;;;4.80;99.90;;;;;;4792885;29;20074;-66
2022/01/20 11:39:00;;;;;;;15.60;2.47;;;4.80;99.90;;;;;;4779406;29;20047;-66
2022/01/20 11:41:39;;;;;;;16.02;3.00;;;4.50;99.90;;;;;;4783150;29;20438;-66
2022/01/20 11:44:14;;;;;;;19.55;3.00;;;4.30;99.90;;;;;;4783059;29;20055;-65
2022/01/20 11:46:45;;;;;;;21.47;3.90;;;4.10;99.90;;;;;;4783000;29;20124;-66
2022/01/20 11:49:17;;;;;;;12.73;3.40;;;4.20;99.90;;;;;;4783017;29;20055;-66
2022/01/20 11:51:47;;;;;;;14.75;2.97;;;3.80;99.90;;;;;;4781679;29;20062;-66
2022/01/20 11:54:17;;;;;;;12.77;3.00;;;3.80;99.90;;;;;;4783819;29;20189;-66
2022/01/20 11:56:44;;;;;;;15.18;2.53;;;4.50;99.90;;;;;;4780533;29;20055;-66
2022/01/20 11:59:13;;;;;;;18.48;3.00;;;3.70;99.90;;;;;;4784271;29;20376;-66
2022/01/20 12:01:53;;;;;;;19.60;3.05;;;3.70;99.90;;;;;;4781266;29;20038;-66
2022/01/20 12:04:35;;;;;;;16.98;2.90;;;3.70;99.90;;;;;;4781603;29;20333;-66
2022/01/20 12:07:03;;;;;;;21.85;3.47;;;4.10;99.90;;;;;;4783570;29;20063;-66
2022/01/20 12:09:34;;;;;;;18.27;3.20;;;4.00;99.90;;;;;;4783614;29;20484;-66
2022/01/20 12:12:00;;;;;;;13.20;2.13;;;4.10;99.90;;;;;;4781910;29;20074;-66
2022/01/20 12:14:35;;;;;;;18.58;2.60;;;4.20;99.90;;;;;;4782474;29;20054;-66
2022/01/20 12:17:12;;;;;;;16.38;2.55;;;4.30;99.90;;;;;;4783235;29;20619;-66
2022/01/20 12:19:38;;;;;;;16.25;2.47;;;4.00;99.90;;;;;;4782480;29;20062;-66
2022/01/20 12:22:05;;;;;;;18.38;3.10;;;3.80;99.90;;;;;;4783976;29;20047;-66
2022/01/20 12:24:32;;;;;;;13.18;2.60;;;3.60;99.90;;;;;;4769382;29;20114;-66
2022/01/20 12:26:58;;;;;;;14.63;2.80;;;3.60;99.90;;;;;;4783752;29;20090;-66
2022/01/20 12:29:37;;;;;;;17.92;2.53;;;3.60;99.90;;;;;;4781888;29;20370;-66
2022/01/20 12:32:12;;;;;;;16.08;2.60;;;3.70;99.90;;;;;;4783611;29;20070;-66
2022/01/20 12:34:38;;;;;;;22.40;2.72;;;4.10;99.90;;;;;;4784435;29;20489;-66
2022/01/20 12:37:04;;;;;;;13.25;2.17;;;3.70;99.90;;;;;;4783520;29;20170;-66
2022/01/20 12:39:36;;;;;;;14.98;3.05;;;3.80;99.90;;;;;;4784670;29;20565;-66
2022/01/20 12:42:10;;;;;;;10.77;2.40;;;4.00;99.90;;;;;;4782889;29;20049;-67
2022/01/20 12:44:50;;;;;;;18.38;2.95;;;4.00;99.90;;;;;;4784072;29;20142;-66
2022/01/20 12:47:17;;;;;;;13.93;2.70;;;4.00;99.90;;;;;;4782689;29;20109;-66
2022/01/20 12:49:52;;;;;;;14.63;2.50;;;4.10;99.90;;;;;;4785482;29;20043;-66
2022/01/20 12:52:18;;;;;;;14.75;2.50;;;4.20;99.90;;;;;;4781371;29;20047;-66
2022/01/20 12:54:44;;;;;;;11.20;2.40;;;4.30;99.90;;;;;;4783185;29;20484;-66
2022/01/20 12:57:13;;;;;;;15.05;2.42;;;4.70;99.90;;;;;;4784129;29;20051;-66
2022/01/20 12:59:42;;;;;;;10.98;2.20;;;4.50;99.90;;;;;;4782561;29;20082;-66
2022/01/20 13:02:19;;;;;;;15.50;2.60;;;4.70;99.90;;;;;;4783984;29;20051;-66
2022/01/20 13:04:46;;;;;;;8.57;2.30;;;4.70;99.90;;;;;;4783556;29;20142;-66
2022/01/20 13:07:16;;;;;;;12.85;2.50;;;4.80;99.90;;;;;;4782901;29;20508;-66
2022/01/20 13:09:50;;;;;;;11.95;2.13;;;4.80;99.90;;;;;;4782109;29;20063;-66
2022/01/20 13:12:18;;;;;;;14.13;2.58;;;5.00;99.90;;;;;;4782070;29;20150;-66
2022/01/20 13:14:51;;;;;;;12.35;2.17;;;4.70;99.90;;;;;;4783202;29;20131;-66
2022/01/20 13:17:24;;;;;;;10.30;2.40;;;4.80;99.90;;;;;;4783946;29;20063;-66
2022/01/20 13:19:54;;;;;;;11.68;2.28;;;4.70;99.90;;;;;;4781286;29;20048;-66
2022/01/20 13:23:01;;;;;;;11.32;2.03;;;4.80;99.90;;;;;;4783308;29;20051;-66
2022/01/20 13:25:18;;;;;;;9.43;2.10;;;4.50;99.90;;;;;;4780243;29;20063;-65
2022/01/20 13:27:52;;;;;;;10.00;1.95;;;4.30;99.90;;;;;;4783145;29;20405;-66
2022/01/20 13:30:48;;;;;;;7.75;1.85;;;4.10;99.90;;;;;;4782014;29;20055;-66
2022/01/20 13:33:23;;;;;;;8.48;2.00;;;4.00;99.90;;;;;;4780707;29;20070;-66
2022/01/20 13:35:56;;;;;;;7.43;1.90;;;3.90;99.90;;;;;;4782492;29;20052;-66
2022/01/20 13:38:33;;;;;;;9.82;1.77;;;3.80;99.90;;;;;;4781938;29;20047;-66
2022/01/20 13:41:12;;;;;;;9.95;2.00;;;3.80;99.90;;;;;;4780578;29;20519;-66
2022/01/20 13:46:33;;;;;;;9.05;1.83;;;3.80;99.90;;;;;;4782761;29;20571;-66
2022/01/20 13:49:14;;;;;;;8.38;2.08;;;3.80;99.90;;;;;;4780403;29;20173;-66
2022/01/20 13:51:41;;;;;;;9.60;1.70;;;3.80;99.90;;;;;;4781719;29;20535;-66
2022/01/20 13:54:07;;;;;;;10.60;2.10;;;3.80;99.90;;;;;;4783828;29;20054;-66
2022/01/20 13:56:33;;;;;;;12.15;2.45;;;3.80;99.90;;;;;;4782449;29;20473;-66
2022/01/20 13:59:10;;;;;;;8.25;1.98;;;3.80;99.90;;;;;;4782528;29;20624;-66
2022/01/20 14:01:36;;;;;;;11.50;2.20;;;3.90;99.90;;;;;;4781365;29;20473;-66
2022/01/20 14:04:03;;;;;;;12.13;2.38;;;3.80;99.90;;;;;;4782132;29;20047;-66